La Quiaca, Argentina
Current Conditions -  °F | °C
As of 12:00 PM on Sunday 21 Dec 2014 (Local Time) from SLTJ Reporting Station
Scattered Clouds Scattered Clouds  
Wind Chill: 81°   Ceiling: Unl
Heat Index: 82°   Visibility: 6mi
Dew Point: 63°   Wind: 9mph
Humidity: 54%   Direction: 140°SE
Pressure: 29.91"   Gusts: NA
Location:  22.11°S, 65.59°W
Report Text: SLTJ 211500Z 14008KT 9999 FEW033 SCT200 27/17 Q1013
Loading
Personal Weather Stations






























Interactive Weather Map New forecast layout! Learn more

10-Day Weather Forecast

Advertisements
Track Severe Weather on mobile